Time,TemperatureF,DewpointF,PressureIn,WindDirection,WindDirectionDegrees,WindSpeedMPH,WindSpeedGustMPH,Humidity,HourlyPrecipIn,Conditions,Clouds,dailyrainin,SoftwareType,DateUTC
2013-09-26 00:01:00,50.0,49.0,29.97,North,0,0.0,0.0,96,50.14,,,-99.99,,2013-09-26 07:01:00,
2013-09-26 00:22:00,50.0,49.0,29.98,North,0,0.0,0.0,96,50.14,,,-99.99,,2013-09-26 07:22:00,
2013-09-26 00:53:00,50.0,49.0,29.98,North,0,0.0,0.0,96,50.14,,,-99.99,,2013-09-26 07:53:00,
2013-09-26 01:11:00,50.0,49.0,29.99,North,0,0.0,0.0,96,50.14,,,-99.99,,2013-09-26 08:11:00,
2013-09-26 01:22:00,49.0,48.0,29.99,North,0,0.0,0.0,96,50.14,,,-99.99,,2013-09-26 08:22:00,
2013-09-26 01:52:00,48.0,47.0,29.99,North,0,0.0,0.0,97,50.14,,,-99.99,,2013-09-26 08:52:00,
2013-09-26 02:22:00,49.0,48.0,29.99,North,0,0.0,0.0,97,50.14,,,-99.99,,2013-09-26 09:22:00,
2013-09-26 02:53:00,49.0,48.0,29.99,North,0,0.0,0.0,97,50.14,,,-99.99,,2013-09-26 09:53:00,
2013-09-26 03:23:00,48.0,47.0,29.99,North,0,0.0,0.0,97,50.14,,,-99.99,,2013-09-26 10:23:00,
2013-09-26 03:53:00,49.0,48.0,30.00,North,0,0.0,0.0,97,50.14,,,-99.99,,2013-09-26 10:53:00,
2013-09-26 04:22:00,48.0,47.0,30.00,North,0,0.0,0.0,97,50.14,,,-99.99,,2013-09-26 11:22:00,
2013-09-26 04:52:00,48.0,47.0,30.00,North,0,0.0,0.0,97,50.14,,,-99.99,,2013-09-26 11:52:00,
2013-09-26 05:11:00,47.0,46.0,30.00,North,0,0.0,0.0,97,50.14,,,-99.99,,2013-09-26 12:11:00,
2013-09-26 05:21:00,47.0,46.0,30.00,North,0,0.0,0.0,97,50.14,,,-99.99,,2013-09-26 12:21:00,
2013-09-26 05:42:00,47.0,46.0,30.00,North,0,0.0,0.0,97,50.14,,,-99.99,,2013-09-26 12:42:00,
2013-09-26 05:52:00,47.0,46.0,30.01,North,0,0.0,0.0,97,50.14,,,-99.99,,2013-09-26 12:52:00,
2013-09-26 06:21:00,47.0,46.0,30.02,North,0,0.0,0.0,97,50.14,,,-99.99,,2013-09-26 13:21:00,
2013-09-26 06:52:00,47.0,46.0,30.02,North,0,0.0,0.0,98,50.14,,,-99.99,,2013-09-26 13:52:00,
2013-09-26 07:22:00,47.0,46.0,30.03,North,0,0.0,0.0,98,50.14,,,-99.99,,2013-09-26 14:22:00,
2013-09-26 07:52:00,47.0,46.0,30.04,North,0,0.0,0.0,98,50.14,,,-99.99,,2013-09-26 14:52:00,
2013-09-26 08:02:00,47.0,46.0,30.04,North,0,0.0,0.0,98,50.14,,,-99.99,,2013-09-26 15:02:00,
2013-09-26 08:22:00,47.0,46.0,30.04,North,0,0.0,0.0,98,50.14,,,-99.99,,2013-09-26 15:22:00,
2013-09-26 08:53:00,48.0,47.0,30.05,North,0,0.0,0.0,98,50.14,,,-99.99,,2013-09-26 15:53:00,
2013-09-26 09:24:00,48.0,47.0,30.05,North,0,0.0,0.0,98,50.14,,,-99.99,,2013-09-26 16:24:00,
2013-09-26 09:53:00,49.0,48.0,30.06,North,0,0.0,0.0,97,50.14,,,-99.99,,2013-09-26 16:53:00,
2013-09-26 10:23:00,50.0,49.0,30.06,North,0,0.0,0.0,95,50.14,,,-99.99,,2013-09-26 17:23:00,
2013-09-26 10:52:00,54.0,50.0,30.05,South,187,1.0,3.0,86,50.14,,,-99.99,,2013-09-26 17:52:00,
2013-09-26 11:21:00,56.0,49.0,30.05,SSW,208,2.0,4.0,77,50.14,,,-99.99,,2013-09-26 18:21:00,
2013-09-26 11:52:00,57.0,48.0,30.05,WSW,239,3.0,6.0,72,50.14,,,-99.99,,2013-09-26 18:52:00,
2013-09-26 12:22:00,59.0,48.0,30.04,WNW,285,3.0,9.0,67,50.14,,,-99.99,,2013-09-26 19:22:00,
2013-09-26 12:52:00,61.0,48.0,30.04,SSW,204,2.0,5.0,63,50.14,,,-99.99,,2013-09-26 19:52:00,
2013-09-26 13:22:00,61.0,48.0,30.03,SSW,201,4.0,9.0,63,50.14,,,-99.99,,2013-09-26 20:22:00,
2013-09-26 13:52:00,62.0,48.0,30.03,SSW,207,3.0,10.0,61,50.14,,,-99.99,,2013-09-26 20:52:00,
2013-09-26 14:23:00,63.0,49.0,30.03,SSE,153,4.0,8.0,61,50.14,,,-99.99,,2013-09-26 21:23:00,
2013-09-26 14:52:00,63.0,50.0,30.03,South,190,4.0,10.0,63,50.14,,,-99.99,,2013-09-26 21:52:00,
2013-09-26 14:54:00,63.0,50.0,30.02,WSW,249,2.0,7.0,62,50.14,,,-99.99,,2013-09-26 21:54:00,
2013-09-26 15:24:00,63.0,50.0,30.03,South,190,4.0,10.0,63,50.14,,,-99.99,,2013-09-26 22:24:00,
2013-09-26 15:32:00,63.0,50.0,30.03,South,190,4.0,10.0,63,50.14,,,-99.99,,2013-09-26 22:32:00,
2013-09-26 17:52:00,61.0,53.0,30.04,North,0,0.0,0.0,75,50.14,,,-99.99,,2013-09-27 00:52:00,
2013-09-26 18:23:00,62.0,51.0,30.05,ESE,107,0.0,3.0,68,50.14,,,-99.99,,2013-09-27 01:23:00,
2013-09-26 18:42:00,62.0,49.0,30.05,West,273,1.0,4.0,63,50.14,,,-99.99,,2013-09-27 01:42:00,
2013-09-26 18:52:00,61.0,53.0,30.05,North,0,0.0,0.0,74,50.14,,,-99.99,,2013-09-27 01:52:00,
2013-09-26 19:22:00,58.0,53.0,30.05,North,0,0.0,0.0,83,50.14,,,-99.99,,2013-09-27 02:22:00,
2013-09-26 19:53:00,57.0,53.0,30.06,North,0,0.0,0.0,85,50.14,,,-99.99,,2013-09-27 02:53:00,
2013-09-26 20:21:00,56.0,51.0,30.07,North,0,0.0,0.0,84,50.14,,,-99.99,,2013-09-27 03:21:00,
2013-09-26 20:55:00,56.0,52.0,30.07,North,0,0.0,0.0,86,50.14,,,-99.99,,2013-09-27 03:55:00,
2013-09-26 21:24:00,54.0,51.0,30.09,North,0,0.0,0.0,90,50.14,,,-99.99,,2013-09-27 04:24:00,
2013-09-26 21:33:00,54.0,51.0,30.09,North,0,0.0,0.0,90,50.14,,,-99.99,,2013-09-27 04:33:00,
2013-09-26 21:54:00,52.0,50.0,30.09,North,0,0.0,0.0,92,50.14,,,-99.99,,2013-09-27 04:54:00,
2013-09-26 22:23:00,51.0,49.0,30.09,North,0,0.0,0.0,94,50.14,,,-99.99,,2013-09-27 05:23:00,
2013-09-26 22:52:00,50.0,49.0,30.11,North,0,0.0,0.0,95,50.14,,,-99.99,,2013-09-27 05:52:00,
2013-09-26 23:22:00,50.0,49.0,30.11,North,0,0.0,0.0,96,50.14,,,-99.99,,2013-09-27 06:22:00,
2013-09-26 23:52:00,49.0,48.0,30.11,North,0,0.0,0.0,96,50.14,,,-99.99,,2013-09-27 06:52:00,